sensor_id;sensor_type;location;lat;lon;timestamp;P1;durP1;ratioP1;P2;durP2;ratioP2
68072;SDS011;54862;51.502;7.446;2022-07-11T00:02:02;4.50;;;2.60;;
68072;SDS011;54862;51.502;7.446;2022-07-11T00:04:29;6.97;;;2.88;;
68072;SDS011;54862;51.502;7.446;2022-07-11T00:06:55;3.55;;;2.40;;
68072;SDS011;54862;51.502;7.446;2022-07-11T00:09:21;8.98;;;3.58;;
68072;SDS011;54862;51.502;7.446;2022-07-11T00:11:47;6.43;;;3.00;;
68072;SDS011;54862;51.502;7.446;2022-07-11T00:14:14;6.65;;;2.70;;
68072;SDS011;54862;51.502;7.446;2022-07-11T00:16:40;5.45;;;2.65;;
68072;SDS011;54862;51.502;7.446;2022-07-11T00:19:06;8.88;;;3.00;;
68072;SDS011;54862;51.502;7.446;2022-07-11T00:21:32;6.90;;;2.85;;
68072;SDS011;54862;51.502;7.446;2022-07-11T00:24:00;6.80;;;2.70;;
68072;SDS011;54862;51.502;7.446;2022-07-11T00:26:26;8.88;;;3.05;;
68072;SDS011;54862;51.502;7.446;2022-07-11T00:28:52;4.47;;;2.58;;
68072;SDS011;54862;51.502;7.446;2022-07-11T00:31:18;7.18;;;3.00;;
68072;SDS011;54862;51.502;7.446;2022-07-11T00:33:44;5.35;;;2.97;;
68072;SDS011;54862;51.502;7.446;2022-07-11T00:36:10;5.15;;;2.83;;
68072;SDS011;54862;51.502;7.446;2022-07-11T00:38:37;7.25;;;3.08;;
68072;SDS011;54862;51.502;7.446;2022-07-11T00:41:03;8.90;;;3.30;;
68072;SDS011;54862;51.502;7.446;2022-07-11T00:43:30;7.82;;;3.20;;
68072;SDS011;54862;51.502;7.446;2022-07-11T00:45:56;7.30;;;3.08;;
68072;SDS011;54862;51.502;7.446;2022-07-11T00:48:22;7.35;;;2.90;;
68072;SDS011;54862;51.502;7.446;2022-07-11T00:50:48;6.22;;;2.95;;
68072;SDS011;54862;51.502;7.446;2022-07-11T00:53:14;5.68;;;2.80;;
68072;SDS011;54862;51.502;7.446;2022-07-11T00:55:40;6.50;;;3.10;;
68072;SDS011;54862;51.502;7.446;2022-07-11T00:58:06;7.55;;;3.10;;
68072;SDS011;54862;51.502;7.446;2022-07-11T01:00:32;6.70;;;2.95;;
68072;SDS011;54862;51.502;7.446;2022-07-11T01:02:58;8.07;;;2.90;;
68072;SDS011;54862;51.502;7.446;2022-07-11T01:05:24;9.98;;;3.95;;
68072;SDS011;54862;51.502;7.446;2022-07-11T01:07:50;7.60;;;3.35;;
68072;SDS011;54862;51.502;7.446;2022-07-11T01:10:16;11.18;;;3.30;;
68072;SDS011;54862;51.502;7.446;2022-07-11T01:12:43;7.93;;;3.70;;
68072;SDS011;54862;51.502;7.446;2022-07-11T01:15:09;8.95;;;3.58;;
68072;SDS011;54862;51.502;7.446;2022-07-11T01:17:36;7.53;;;3.10;;
68072;SDS011;54862;51.502;7.446;2022-07-11T01:20:02;8.45;;;3.58;;
68072;SDS011;54862;51.502;7.446;2022-07-11T01:22:28;9.15;;;3.72;;
68072;SDS011;54862;51.502;7.446;2022-07-11T01:24:57;7.20;;;2.92;;
68072;SDS011;54862;51.502;7.446;2022-07-11T01:27:23;8.27;;;3.50;;
68072;SDS011;54862;51.502;7.446;2022-07-11T01:29:49;10.23;;;3.38;;
68072;SDS011;54862;51.502;7.446;2022-07-11T01:32:17;7.05;;;3.40;;
68072;SDS011;54862;51.502;7.446;2022-07-11T01:34:43;7.53;;;3.15;;
68072;SDS011;54862;51.502;7.446;2022-07-11T01:37:09;7.90;;;3.13;;
68072;SDS011;54862;51.502;7.446;2022-07-11T01:39:35;9.07;;;3.42;;
68072;SDS011;54862;51.502;7.446;2022-07-11T01:42:01;8.70;;;3.88;;
68072;SDS011;54862;51.502;7.446;2022-07-11T01:44:27;8.43;;;3.35;;
68072;SDS011;54862;51.502;7.446;2022-07-11T01:46:53;6.85;;;3.42;;
68072;SDS011;54862;51.502;7.446;2022-07-11T01:49:19;11.13;;;3.53;;
68072;SDS011;54862;51.502;7.446;2022-07-11T01:51:45;11.02;;;3.65;;
68072;SDS011;54862;51.502;7.446;2022-07-11T01:54:12;7.28;;;3.35;;
68072;SDS011;54862;51.502;7.446;2022-07-11T01:56:38;7.38;;;3.33;;
68072;SDS011;54862;51.502;7.446;2022-07-11T01:59:04;6.97;;;4.00;;
68072;SDS011;54862;51.502;7.446;2022-07-11T02:01:30;10.38;;;3.83;;
68072;SDS011;54862;51.502;7.446;2022-07-11T02:03:56;11.23;;;3.97;;
68072;SDS011;54862;51.502;7.446;2022-07-11T02:06:22;8.45;;;3.72;;
68072;SDS011;54862;51.502;7.446;2022-07-11T02:08:48;7.70;;;3.35;;
68072;SDS011;54862;51.502;7.446;2022-07-11T02:11:14;8.73;;;3.60;;
68072;SDS011;54862;51.502;7.446;2022-07-11T02:13:41;8.55;;;4.38;;
68072;SDS011;54862;51.502;7.446;2022-07-11T02:16:07;7.20;;;3.40;;
68072;SDS011;54862;51.502;7.446;2022-07-11T02:18:33;9.20;;;3.50;;
68072;SDS011;54862;51.502;7.446;2022-07-11T02:20:59;7.75;;;3.60;;
68072;SDS011;54862;51.502;7.446;2022-07-11T02:23:25;10.80;;;3.92;;
68072;SDS011;54862;51.502;7.446;2022-07-11T02:25:52;8.05;;;3.58;;
68072;SDS011;54862;51.502;7.446;2022-07-11T02:28:18;7.32;;;3.20;;
68072;SDS011;54862;51.502;7.446;2022-07-11T02:30:44;8.52;;;3.60;;
68072;SDS011;54862;51.502;7.446;2022-07-11T02:33:10;10.85;;;3.65;;
68072;SDS011;54862;51.502;7.446;2022-07-11T02:35:40;7.40;;;3.60;;
68072;SDS011;54862;51.502;7.446;2022-07-11T02:38:06;6.55;;;3.40;;
68072;SDS011;54862;51.502;7.446;2022-07-11T02:40:32;10.82;;;3.30;;
68072;SDS011;54862;51.502;7.446;2022-07-11T02:42:58;8.10;;;3.13;;
68072;SDS011;54862;51.502;7.446;2022-07-11T02:45:24;7.57;;;3.65;;
68072;SDS011;54862;51.502;7.446;2022-07-11T02:47:50;8.50;;;3.38;;
68072;SDS011;54862;51.502;7.446;2022-07-11T02:50:16;7.75;;;3.70;;
68072;SDS011;54862;51.502;7.446;2022-07-11T02:52:42;8.23;;;3.60;;
68072;SDS011;54862;51.502;7.446;2022-07-11T02:55:09;7.70;;;3.42;;
68072;SDS011;54862;51.502;7.446;2022-07-11T02:57:35;9.38;;;3.13;;
68072;SDS011;54862;51.502;7.446;2022-07-11T03:00:02;8.65;;;3.85;;
68072;SDS011;54862;51.502;7.446;2022-07-11T03:02:29;8.60;;;3.50;;
68072;SDS011;54862;51.502;7.446;2022-07-11T03:04:56;9.05;;;3.85;;
68072;SDS011;54862;51.502;7.446;2022-07-11T03:07:23;10.18;;;3.40;;
68072;SDS011;54862;51.502;7.446;2022-07-11T03:09:49;8.07;;;3.63;;
68072;SDS011;54862;51.502;7.446;2022-07-11T03:12:15;8.98;;;3.30;;
68072;SDS011;54862;51.502;7.446;2022-07-11T03:14:40;9.50;;;3.30;;
68072;SDS011;54862;51.502;7.446;2022-07-11T03:17:07;8.27;;;3.72;;
68072;SDS011;54862;51.502;7.446;2022-07-11T03:19:33;9.93;;;3.65;;
68072;SDS011;54862;51.502;7.446;2022-07-11T03:21:59;8.70;;;3.30;;
68072;SDS011;54862;51.502;7.446;2022-07-11T03:24:25;8.07;;;3.72;;
68072;SDS011;54862;51.502;7.446;2022-07-11T03:26:51;8.02;;;3.45;;
68072;SDS011;54862;51.502;7.446;2022-07-11T03:29:17;7.60;;;3.33;;
68072;SDS011;54862;51.502;7.446;2022-07-11T03:31:43;9.13;;;3.38;;
68072;SDS011;54862;51.502;7.446;2022-07-11T03:34:09;9.75;;;3.95;;
68072;SDS011;54862;51.502;7.446;2022-07-11T03:36:35;9.30;;;3.38;;
68072;SDS011;54862;51.502;7.446;2022-07-11T03:39:01;8.77;;;3.30;;
68072;SDS011;54862;51.502;7.446;2022-07-11T03:41:27;9.57;;;4.25;;
68072;SDS011;54862;51.502;7.446;2022-07-11T03:43:54;7.78;;;3.30;;
68072;SDS011;54862;51.502;7.446;2022-07-11T03:46:21;6.45;;;3.10;;
68072;SDS011;54862;51.502;7.446;2022-07-11T03:48:47;9.43;;;3.58;;
68072;SDS011;54862;51.502;7.446;2022-07-11T03:51:13;9.40;;;3.50;;
68072;SDS011;54862;51.502;7.446;2022-07-11T03:53:39;9.68;;;3.88;;
68072;SDS011;54862;51.502;7.446;2022-07-11T03:56:05;7.78;;;3.53;;
68072;SDS011;54862;51.502;7.446;2022-07-11T03:58:31;11.07;;;3.70;;
68072;SDS011;54862;51.502;7.446;2022-07-11T04:00:57;7.72;;;3.60;;
68072;SDS011;54862;51.502;7.446;2022-07-11T04:03:23;7.43;;;3.58;;
68072;SDS011;54862;51.502;7.446;2022-07-11T04:05:50;8.15;;;3.33;;
68072;SDS011;54862;51.502;7.446;2022-07-11T04:08:16;10.05;;;3.90;;
68072;SDS011;54862;51.502;7.446;2022-07-11T04:10:43;9.18;;;3.65;;
68072;SDS011;54862;51.502;7.446;2022-07-11T04:13:09;8.98;;;3.50;;
68072;SDS011;54862;51.502;7.446;2022-07-11T04:15:35;9.13;;;3.53;;
68072;SDS011;54862;51.502;7.446;2022-07-11T04:18:01;8.40;;;4.00;;
68072;SDS011;54862;51.502;7.446;2022-07-11T04:20:27;9.75;;;3.90;;
68072;SDS011;54862;51.502;7.446;2022-07-11T04:22:53;10.77;;;4.18;;
68072;SDS011;54862;51.502;7.446;2022-07-11T04:25:19;9.93;;;3.88;;
68072;SDS011;54862;51.502;7.446;2022-07-11T04:27:45;7.60;;;3.40;;
68072;SDS011;54862;51.502;7.446;2022-07-11T04:30:11;9.80;;;3.72;;
68072;SDS011;54862;51.502;7.446;2022-07-11T04:32:37;7.25;;;3.80;;
68072;SDS011;54862;51.502;7.446;2022-07-11T04:35:03;8.13;;;3.53;;
68072;SDS011;54862;51.502;7.446;2022-07-11T04:37:30;9.63;;;3.53;;
68072;SDS011;54862;51.502;7.446;2022-07-11T04:39:55;11.00;;;3.80;;
68072;SDS011;54862;51.502;7.446;2022-07-11T04:42:21;11.45;;;4.18;;
68072;SDS011;54862;51.502;7.446;2022-07-11T04:44:47;9.43;;;3.67;;
68072;SDS011;54862;51.502;7.446;2022-07-11T04:47:13;9.45;;;3.97;;
68072;SDS011;54862;51.502;7.446;2022-07-11T04:49:39;7.57;;;3.33;;
68072;SDS011;54862;51.502;7.446;2022-07-11T04:52:05;9.40;;;3.60;;
68072;SDS011;54862;51.502;7.446;2022-07-11T04:54:32;8.85;;;4.07;;
68072;SDS011;54862;51.502;7.446;2022-07-11T04:56:58;9.95;;;3.53;;
68072;SDS011;54862;51.502;7.446;2022-07-11T04:59:24;11.00;;;4.18;;
68072;SDS011;54862;51.502;7.446;2022-07-11T05:01:51;10.70;;;3.90;;
68072;SDS011;54862;51.502;7.446;2022-07-11T05:04:17;12.40;;;3.40;;
68072;SDS011;54862;51.502;7.446;2022-07-11T05:06:43;9.88;;;3.65;;
68072;SDS011;54862;51.502;7.446;2022-07-11T05:09:09;12.55;;;4.18;;
68072;SDS011;54862;51.502;7.446;2022-07-11T05:11:36;13.43;;;3.75;;
68072;SDS011;54862;51.502;7.446;2022-07-11T05:14:02;11.00;;;4.13;;
68072;SDS011;54862;51.502;7.446;2022-07-11T05:16:28;7.30;;;3.92;;
68072;SDS011;54862;51.502;7.446;2022-07-11T05:18:54;9.70;;;4.15;;
68072;SDS011;54862;51.502;7.446;2022-07-11T05:21:20;9.02;;;4.10;;
68072;SDS011;54862;51.502;7.446;2022-07-11T05:23:49;7.00;;;3.60;;
68072;SDS011;54862;51.502;7.446;2022-07-11T05:26:15;11.48;;;4.53;;
68072;SDS011;54862;51.502;7.446;2022-07-11T05:28:41;8.82;;;3.58;;
68072;SDS011;54862;51.502;7.446;2022-07-11T05:31:07;7.97;;;3.50;;
68072;SDS011;54862;51.502;7.446;2022-07-11T05:33:33;10.75;;;4.10;;
68072;SDS011;54862;51.502;7.446;2022-07-11T05:36:00;7.82;;;3.42;;
68072;SDS011;54862;51.502;7.446;2022-07-11T05:38:26;8.65;;;3.40;;
68072;SDS011;54862;51.502;7.446;2022-07-11T05:40:52;8.27;;;3.20;;
68072;SDS011;54862;51.502;7.446;2022-07-11T05:43:18;6.65;;;2.90;;
68072;SDS011;54862;51.502;7.446;2022-07-11T05:45:44;6.40;;;2.50;;
68072;SDS011;54862;51.502;7.446;2022-07-11T05:48:10;5.95;;;2.47;;
68072;SDS011;54862;51.502;7.446;2022-07-11T05:50:36;6.03;;;2.45;;
68072;SDS011;54862;51.502;7.446;2022-07-11T05:53:02;5.63;;;2.60;;
68072;SDS011;54862;51.502;7.446;2022-07-11T05:55:29;3.30;;;2.10;;
68072;SDS011;54862;51.502;7.446;2022-07-11T05:57:55;4.03;;;2.10;;
68072;SDS011;54862;51.502;7.446;2022-07-11T06:00:21;6.85;;;2.08;;
68072;SDS011;54862;51.502;7.446;2022-07-11T06:02:50;3.78;;;2.00;;
68072;SDS011;54862;51.502;7.446;2022-07-11T06:05:16;4.78;;;2.10;;
68072;SDS011;54862;51.502;7.446;2022-07-11T06:07:42;4.85;;;2.00;;
68072;SDS011;54862;51.502;7.446;2022-07-11T06:10:27;4.25;;;1.75;;
68072;SDS011;54862;51.502;7.446;2022-07-11T06:12:53;3.40;;;1.90;;
68072;SDS011;54862;51.502;7.446;2022-07-11T06:15:20;2.40;;;1.42;;
68072;SDS011;54862;51.502;7.446;2022-07-11T06:17:46;4.55;;;1.77;;
68072;SDS011;54862;51.502;7.446;2022-07-11T06:20:12;2.95;;;1.58;;
68072;SDS011;54862;51.502;7.446;2022-07-11T06:22:38;3.75;;;1.70;;
68072;SDS011;54862;51.502;7.446;2022-07-11T06:25:04;2.80;;;1.50;;
68072;SDS011;54862;51.502;7.446;2022-07-11T06:27:30;4.03;;;1.80;;
68072;SDS011;54862;51.502;7.446;2022-07-11T06:29:56;3.13;;;1.67;;
68072;SDS011;54862;51.502;7.446;2022-07-11T06:32:22;2.17;;;1.30;;
68072;SDS011;54862;51.502;7.446;2022-07-11T06:34:49;2.00;;;1.30;;
68072;SDS011;54862;51.502;7.446;2022-07-11T06:37:15;1.77;;;1.30;;
68072;SDS011;54862;51.502;7.446;2022-07-11T06:39:41;3.35;;;1.40;;
68072;SDS011;54862;51.502;7.446;2022-07-11T06:42:07;2.17;;;1.50;;
68072;SDS011;54862;51.502;7.446;2022-07-11T06:44:33;2.60;;;1.45;;
68072;SDS011;54862;51.502;7.446;2022-07-11T06:46:59;1.30;;;1.20;;
68072;SDS011;54862;51.502;7.446;2022-07-11T06:49:25;1.67;;;1.27;;
68072;SDS011;54862;51.502;7.446;2022-07-11T06:51:51;2.85;;;1.30;;
68072;SDS011;54862;51.502;7.446;2022-07-11T06:54:17;1.42;;;1.30;;
68072;SDS011;54862;51.502;7.446;2022-07-11T06:56:43;1.55;;;1.35;;
68072;SDS011;54862;51.502;7.446;2022-07-11T06:59:09;1.83;;;1.38;;
68072;SDS011;54862;51.502;7.446;2022-07-11T07:01:35;1.27;;;1.17;;
68072;SDS011;54862;51.502;7.446;2022-07-11T07:04:02;2.58;;;1.30;;
68072;SDS011;54862;51.502;7.446;2022-07-11T07:06:28;2.47;;;1.30;;
68072;SDS011;54862;51.502;7.446;2022-07-11T07:08:54;2.83;;;1.30;;
68072;SDS011;54862;51.502;7.446;2022-07-11T07:11:20;1.13;;;1.10;;
68072;SDS011;54862;51.502;7.446;2022-07-11T07:13:46;2.22;;;1.23;;
68072;SDS011;54862;51.502;7.446;2022-07-11T07:16:14;1.20;;;1.10;;
68072;SDS011;54862;51.502;7.446;2022-07-11T07:18:40;6.57;;;2.97;;
68072;SDS011;54862;51.502;7.446;2022-07-11T07:21:10;7.30;;;2.10;;
68072;SDS011;54862;51.502;7.446;2022-07-11T07:23:37;3.75;;;1.50;;
68072;SDS011;54862;51.502;7.446;2022-07-11T07:26:03;3.85;;;1.45;;
68072;SDS011;54862;51.502;7.446;2022-07-11T07:28:29;1.40;;;1.30;;
68072;SDS011;54862;51.502;7.446;2022-07-11T07:30:56;2.20;;;1.27;;
68072;SDS011;54862;51.502;7.446;2022-07-11T07:33:22;1.58;;;1.27;;
68072;SDS011;54862;51.502;7.446;2022-07-11T07:35:48;1.65;;;1.20;;
68072;SDS011;54862;51.502;7.446;2022-07-11T07:38:14;2.42;;;1.40;;
68072;SDS011;54862;51.502;7.446;2022-07-11T07:40:40;4.20;;;1.38;;
68072;SDS011;54862;51.502;7.446;2022-07-11T07:43:06;1.58;;;1.40;;
68072;SDS011;54862;51.502;7.446;2022-07-11T07:45:32;1.83;;;1.40;;
68072;SDS011;54862;51.502;7.446;2022-07-11T07:47:58;2.40;;;1.50;;
68072;SDS011;54862;51.502;7.446;2022-07-11T07:50:24;4.25;;;1.67;;
68072;SDS011;54862;51.502;7.446;2022-07-11T07:52:50;3.10;;;1.60;;
68072;SDS011;54862;51.502;7.446;2022-07-11T07:55:16;3.10;;;1.52;;
68072;SDS011;54862;51.502;7.446;2022-07-11T07:57:43;6.70;;;2.10;;
68072;SDS011;54862;51.502;7.446;2022-07-11T08:00:10;3.25;;;1.80;;
68072;SDS011;54862;51.502;7.446;2022-07-11T08:02:54;3.67;;;1.80;;
68072;SDS011;54862;51.502;7.446;2022-07-11T08:05:20;2.10;;;1.75;;
68072;SDS011;54862;51.502;7.446;2022-07-11T08:07:46;6.00;;;2.40;;
68072;SDS011;54862;51.502;7.446;2022-07-11T08:10:12;3.15;;;1.85;;
68072;SDS011;54862;51.502;7.446;2022-07-11T08:12:41;4.60;;;2.20;;
68072;SDS011;54862;51.502;7.446;2022-07-11T08:15:08;5.15;;;2.20;;
68072;SDS011;54862;51.502;7.446;2022-07-11T08:17:34;4.38;;;2.05;;
68072;SDS011;54862;51.502;7.446;2022-07-11T08:20:00;4.45;;;2.17;;
68072;SDS011;54862;51.502;7.446;2022-07-11T08:22:26;7.53;;;2.50;;
68072;SDS011;54862;51.502;7.446;2022-07-11T08:24:52;3.47;;;1.90;;
68072;SDS011;54862;51.502;7.446;2022-07-11T08:27:18;5.03;;;1.83;;
68072;SDS011;54862;51.502;7.446;2022-07-11T08:29:44;6.07;;;1.90;;
68072;SDS011;54862;51.502;7.446;2022-07-11T08:32:10;2.00;;;1.50;;
68072;SDS011;54862;51.502;7.446;2022-07-11T08:34:37;3.55;;;1.92;;
68072;SDS011;54862;51.502;7.446;2022-07-11T08:37:03;4.15;;;1.50;;
68072;SDS011;54862;51.502;7.446;2022-07-11T08:39:29;2.50;;;1.60;;
68072;SDS011;54862;51.502;7.446;2022-07-11T08:41:55;4.85;;;1.77;;
68072;SDS011;54862;51.502;7.446;2022-07-11T08:44:23;3.78;;;1.90;;
68072;SDS011;54862;51.502;7.446;2022-07-11T08:46:49;3.35;;;1.67;;
68072;SDS011;54862;51.502;7.446;2022-07-11T08:49:16;3.70;;;2.00;;
68072;SDS011;54862;51.502;7.446;2022-07-11T08:51:42;2.70;;;1.90;;
68072;SDS011;54862;51.502;7.446;2022-07-11T08:54:08;2.25;;;1.98;;
68072;SDS011;54862;51.502;7.446;2022-07-11T08:56:36;5.88;;;2.20;;
68072;SDS011;54862;51.502;7.446;2022-07-11T08:59:02;4.10;;;2.20;;
68072;SDS011;54862;51.502;7.446;2022-07-11T09:01:33;5.30;;;2.33;;
68072;SDS011;54862;51.502;7.446;2022-07-11T09:04:00;4.03;;;2.50;;
68072;SDS011;54862;51.502;7.446;2022-07-11T09:06:26;4.90;;;2.70;;
68072;SDS011;54862;51.502;7.446;2022-07-11T09:09:01;5.35;;;2.70;;
68072;SDS011;54862;51.502;7.446;2022-07-11T09:11:28;3.97;;;2.50;;
68072;SDS011;54862;51.502;7.446;2022-07-11T09:13:54;7.15;;;2.60;;
68072;SDS011;54862;51.502;7.446;2022-07-11T09:16:20;4.45;;;2.60;;
68072;SDS011;54862;51.502;7.446;2022-07-11T09:18:46;5.55;;;2.72;;
68072;SDS011;54862;51.502;7.446;2022-07-11T09:21:13;4.57;;;2.58;;
68072;SDS011;54862;51.502;7.446;2022-07-11T09:23:58;6.32;;;4.53;;
68072;SDS011;54862;51.502;7.446;2022-07-11T09:26:47;5.70;;;2.70;;
68072;SDS011;54862;51.502;7.446;2022-07-11T09:29:14;3.72;;;2.20;;
68072;SDS011;54862;51.502;7.446;2022-07-11T09:31:41;4.07;;;2.17;;
68072;SDS011;54862;51.502;7.446;2022-07-11T09:34:08;4.55;;;2.03;;
68072;SDS011;54862;51.502;7.446;2022-07-11T09:39:01;3.55;;;2.10;;
68072;SDS011;54862;51.502;7.446;2022-07-11T09:41:31;2.42;;;1.80;;
68072;SDS011;54862;51.502;7.446;2022-07-11T09:44:32;3.65;;;2.00;;
68072;SDS011;54862;51.502;7.446;2022-07-11T09:46:54;3.38;;;1.98;;
68072;SDS011;54862;51.502;7.446;2022-07-11T09:49:31;4.22;;;2.15;;
68072;SDS011;54862;51.502;7.446;2022-07-11T09:52:13;4.95;;;2.22;;
68072;SDS011;54862;51.502;7.446;2022-07-11T09:54:58;3.58;;;2.05;;
68072;SDS011;54862;51.502;7.446;2022-07-11T09:57:32;3.13;;;2.10;;
68072;SDS011;54862;51.502;7.446;2022-07-11T09:59:59;4.63;;;2.30;;
68072;SDS011;54862;51.502;7.446;2022-07-11T10:02:25;3.75;;;2.10;;
68072;SDS011;54862;51.502;7.446;2022-07-11T10:04:51;4.97;;;1.88;;
68072;SDS011;54862;51.502;7.446;2022-07-11T10:07:18;4.20;;;1.80;;
68072;SDS011;54862;51.502;7.446;2022-07-11T10:09:44;3.03;;;1.88;;
68072;SDS011;54862;51.502;7.446;2022-07-11T10:12:10;3.63;;;2.10;;
68072;SDS011;54862;51.502;7.446;2022-07-11T10:14:36;4.47;;;1.83;;
68072;SDS011;54862;51.502;7.446;2022-07-11T10:17:11;2.72;;;1.85;;
68072;SDS011;54862;51.502;7.446;2022-07-11T10:20:01;5.97;;;2.03;;
68072;SDS011;54862;51.502;7.446;2022-07-11T10:29:51;4.75;;;2.17;;
68072;SDS011;54862;51.502;7.446;2022-07-11T10:32:17;3.95;;;1.92;;
68072;SDS011;54862;51.502;7.446;2022-07-11T10:35:04;3.58;;;2.10;;
68072;SDS011;54862;51.502;7.446;2022-07-11T10:37:44;6.53;;;2.67;;
68072;SDS011;54862;51.502;7.446;2022-07-11T10:40:11;5.22;;;2.47;;
68072;SDS011;54862;51.502;7.446;2022-07-11T10:42:40;4.88;;;2.13;;
68072;SDS011;54862;51.502;7.446;2022-07-11T10:45:08;6.07;;;2.67;;
68072;SDS011;54862;51.502;7.446;2022-07-11T10:47:42;8.23;;;3.58;;
68072;SDS011;54862;51.502;7.446;2022-07-11T10:52:55;6.55;;;2.47;;
68072;SDS011;54862;51.502;7.446;2022-07-11T10:55:32;4.80;;;2.33;;
68072;SDS011;54862;51.502;7.446;2022-07-11T11:00:25;5.25;;;2.75;;
68072;SDS011;54862;51.502;7.446;2022-07-11T11:05:42;5.45;;;2.53;;
68072;SDS011;54862;51.502;7.446;2022-07-11T11:08:53;5.30;;;2.72;;
68072;SDS011;54862;51.502;7.446;2022-07-11T11:10:54;4.95;;;2.90;;
68072;SDS011;54862;51.502;7.446;2022-07-11T11:13:20;5.05;;;2.97;;
68072;SDS011;54862;51.502;7.446;2022-07-11T11:26:07;1.80;;;1.63;;
68072;SDS011;54862;51.502;7.446;2022-07-11T11:28:33;3.05;;;1.92;;
68072;SDS011;54862;51.502;7.446;2022-07-11T11:31:00;2.22;;;1.55;;
68072;SDS011;54862;51.502;7.446;2022-07-11T11:33:28;3.65;;;1.80;;
68072;SDS011;54862;51.502;7.446;2022-07-11T11:36:04;2.95;;;1.70;;
68072;SDS011;54862;51.502;7.446;2022-07-11T11:38:40;3.75;;;1.80;;
68072;SDS011;54862;51.502;7.446;2022-07-11T11:41:06;2.60;;;1.67;;
68072;SDS011;54862;51.502;7.446;2022-07-11T11:43:33;3.03;;;1.70;;
68072;SDS011;54862;51.502;7.446;2022-07-11T11:45:59;2.70;;;1.80;;
68072;SDS011;54862;51.502;7.446;2022-07-11T11:51:03;2.70;;;1.83;;
68072;SDS011;54862;51.502;7.446;2022-07-11T11:58:58;3.38;;;1.90;;
68072;SDS011;54862;51.502;7.446;2022-07-11T12:01:28;2.53;;;1.90;;
68072;SDS011;54862;51.502;7.446;2022-07-11T12:03:58;2.72;;;1.98;;
68072;SDS011;54862;51.502;7.446;2022-07-11T12:06:24;2.38;;;1.70;;
68072;SDS011;54862;51.502;7.446;2022-07-11T12:08:51;1.90;;;1.70;;
68072;SDS011;54862;51.502;7.446;2022-07-11T12:11:17;1.80;;;1.60;;
68072;SDS011;54862;51.502;7.446;2022-07-11T12:13:44;3.45;;;1.50;;
68072;SDS011;54862;51.502;7.446;2022-07-11T12:16:17;2.17;;;1.67;;
68072;SDS011;54862;51.502;7.446;2022-07-11T12:19:02;2.28;;;1.60;;
68072;SDS011;54862;51.502;7.446;2022-07-11T12:21:29;2.65;;;1.70;;
68072;SDS011;54862;51.502;7.446;2022-07-11T12:23:57;2.20;;;1.60;;
68072;SDS011;54862;51.502;7.446;2022-07-11T12:26:26;3.63;;;1.67;;
68072;SDS011;54862;51.502;7.446;2022-07-11T12:29:12;1.90;;;1.60;;
68072;SDS011;54862;51.502;7.446;2022-07-11T12:31:46;2.00;;;1.55;;
68072;SDS011;54862;51.502;7.446;2022-07-11T12:34:12;2.80;;;1.50;;
68072;SDS011;54862;51.502;7.446;2022-07-11T12:36:39;1.65;;;1.55;;
68072;SDS011;54862;51.502;7.446;2022-07-11T12:39:05;2.00;;;1.48;;
68072;SDS011;54862;51.502;7.446;2022-07-11T12:41:31;1.95;;;1.50;;
68072;SDS011;54862;51.502;7.446;2022-07-11T12:43:57;2.17;;;1.20;;
68072;SDS011;54862;51.502;7.446;2022-07-11T12:46:42;1.88;;;1.40;;
68072;SDS011;54862;51.502;7.446;2022-07-11T12:49:11;1.80;;;1.50;;
68072;SDS011;54862;51.502;7.446;2022-07-11T12:51:38;2.30;;;1.63;;
68072;SDS011;54862;51.502;7.446;2022-07-11T12:54:06;2.15;;;1.52;;
68072;SDS011;54862;51.502;7.446;2022-07-11T12:56:33;1.50;;;1.40;;
68072;SDS011;54862;51.502;7.446;2022-07-11T12:58:59;2.50;;;1.50;;
68072;SDS011;54862;51.502;7.446;2022-07-11T13:01:27;1.58;;;1.48;;
68072;SDS011;54862;51.502;7.446;2022-07-11T13:03:53;3.25;;;1.70;;
68072;SDS011;54862;51.502;7.446;2022-07-11T13:06:19;1.63;;;1.50;;
68072;SDS011;54862;51.502;7.446;2022-07-11T13:09:04;3.33;;;1.90;;
68072;SDS011;54862;51.502;7.446;2022-07-11T13:11:30;1.63;;;1.50;;
68072;SDS011;54862;51.502;7.446;2022-07-11T13:13:56;2.25;;;1.60;;
68072;SDS011;54862;51.502;7.446;2022-07-11T13:16:23;1.60;;;1.50;;
68072;SDS011;54862;51.502;7.446;2022-07-11T13:18:49;2.67;;;1.67;;
68072;SDS011;54862;51.502;7.446;2022-07-11T13:21:15;4.47;;;2.40;;
68072;SDS011;54862;51.502;7.446;2022-07-11T13:23:41;3.20;;;1.88;;
68072;SDS011;54862;51.502;7.446;2022-07-11T13:26:08;2.55;;;1.75;;
68072;SDS011;54862;51.502;7.446;2022-07-11T13:28:35;2.97;;;1.90;;
68072;SDS011;54862;51.502;7.446;2022-07-11T13:31:01;2.63;;;2.00;;
68072;SDS011;54862;51.502;7.446;2022-07-11T13:33:30;2.97;;;1.80;;
68072;SDS011;54862;51.502;7.446;2022-07-11T13:35:56;3.65;;;2.22;;
68072;SDS011;54862;51.502;7.446;2022-07-11T13:38:22;3.03;;;2.00;;
68072;SDS011;54862;51.502;7.446;2022-07-11T13:40:48;2.28;;;1.70;;
68072;SDS011;54862;51.502;7.446;2022-07-11T13:43:15;2.10;;;1.80;;
68072;SDS011;54862;51.502;7.446;2022-07-11T13:45:41;2.75;;;1.80;;
68072;SDS011;54862;51.502;7.446;2022-07-11T13:48:09;5.22;;;2.05;;
68072;SDS011;54862;51.502;7.446;2022-07-11T13:50:36;2.58;;;2.00;;
68072;SDS011;54862;51.502;7.446;2022-07-11T13:53:02;3.50;;;1.92;;
68072;SDS011;54862;51.502;7.446;2022-07-11T13:55:28;3.33;;;1.73;;
68072;SDS011;54862;51.502;7.446;2022-07-11T13:57:55;1.98;;;1.77;;
68072;SDS011;54862;51.502;7.446;2022-07-11T14:00:21;3.38;;;1.90;;
68072;SDS011;54862;51.502;7.446;2022-07-11T14:02:48;2.60;;;1.95;;
68072;SDS011;54862;51.502;7.446;2022-07-11T14:05:14;2.95;;;2.03;;
68072;SDS011;54862;51.502;7.446;2022-07-11T14:07:41;2.47;;;1.80;;
68072;SDS011;54862;51.502;7.446;2022-07-11T14:10:07;3.05;;;2.10;;
68072;SDS011;54862;51.502;7.446;2022-07-11T14:12:34;4.40;;;2.13;;
68072;SDS011;54862;51.502;7.446;2022-07-11T14:15:00;3.53;;;2.22;;
68072;SDS011;54862;51.502;7.446;2022-07-11T14:17:27;2.97;;;2.10;;
68072;SDS011;54862;51.502;7.446;2022-07-11T14:19:53;4.82;;;2.60;;
68072;SDS011;54862;51.502;7.446;2022-07-11T14:22:21;3.33;;;2.20;;
68072;SDS011;54862;51.502;7.446;2022-07-11T14:24:47;3.22;;;2.40;;
68072;SDS011;54862;51.502;7.446;2022-07-11T14:27:13;2.53;;;2.00;;
68072;SDS011;54862;51.502;7.446;2022-07-11T14:29:40;3.20;;;2.30;;
68072;SDS011;54862;51.502;7.446;2022-07-11T14:32:06;4.90;;;2.30;;
68072;SDS011;54862;51.502;7.446;2022-07-11T14:34:32;6.05;;;2.40;;
68072;SDS011;54862;51.502;7.446;2022-07-11T14:36:58;5.10;;;2.60;;
68072;SDS011;54862;51.502;7.446;2022-07-11T14:39:24;4.60;;;2.83;;
68072;SDS011;54862;51.502;7.446;2022-07-11T14:41:50;5.13;;;2.90;;
68072;SDS011;54862;51.502;7.446;2022-07-11T14:44:17;4.55;;;2.95;;
68072;SDS011;54862;51.502;7.446;2022-07-11T14:46:43;5.20;;;3.17;;
68072;SDS011;54862;51.502;7.446;2022-07-11T14:49:09;5.70;;;3.42;;
68072;SDS011;54862;51.502;7.446;2022-07-11T14:51:36;5.97;;;3.58;;
68072;SDS011;54862;51.502;7.446;2022-07-11T14:54:02;6.18;;;3.50;;
68072;SDS011;54862;51.502;7.446;2022-07-11T14:56:28;6.97;;;3.80;;
68072;SDS011;54862;51.502;7.446;2022-07-11T14:58:54;5.63;;;3.10;;
68072;SDS011;54862;51.502;7.446;2022-07-11T15:01:20;5.50;;;3.50;;
68072;SDS011;54862;51.502;7.446;2022-07-11T15:03:46;4.93;;;3.10;;
68072;SDS011;54862;51.502;7.446;2022-07-11T15:06:13;4.43;;;2.60;;
68072;SDS011;54862;51.502;7.446;2022-07-11T15:08:40;4.78;;;2.80;;
68072;SDS011;54862;51.502;7.446;2022-07-11T15:11:24;3.80;;;2.60;;
68072;SDS011;54862;51.502;7.446;2022-07-11T15:14:11;4.68;;;2.35;;
68072;SDS011;54862;51.502;7.446;2022-07-11T15:16:38;3.33;;;2.30;;
68072;SDS011;54862;51.502;7.446;2022-07-11T15:19:05;3.28;;;2.15;;
68072;SDS011;54862;51.502;7.446;2022-07-11T15:21:32;4.07;;;2.35;;
68072;SDS011;54862;51.502;7.446;2022-07-11T15:23:58;2.65;;;2.00;;
68072;SDS011;54862;51.502;7.446;2022-07-11T15:26:25;2.55;;;2.00;;